createdAt,value
2019-04-27T00:01:33.619Z,12.17
2019-04-27T00:04:21.027Z,12.27
2019-04-27T00:06:51.352Z,14.53
2019-04-27T00:09:43.226Z,12.97
2019-04-27T00:12:10.463Z,13.30
2019-04-27T00:14:40.115Z,12.53
2019-04-27T00:17:43.551Z,10.80
2019-04-27T00:20:24.723Z,10.83
2019-04-27T00:23:19.882Z,9.97
2019-04-27T00:25:49.738Z,10.60
2019-04-27T00:28:19.269Z,10.33
2019-04-27T00:30:48.852Z,10.10
2019-04-27T00:33:18.633Z,10.73
2019-04-27T00:35:54.002Z,10.60
2019-04-27T00:38:29.113Z,11.20
2019-04-27T00:41:03.252Z,10.47
2019-04-27T00:43:32.887Z,12.27
2019-04-27T00:46:04.034Z,12.50
2019-04-27T00:48:37.576Z,13.30
2019-04-27T00:51:07.317Z,14.00
2019-04-27T00:53:39.328Z,14.10
2019-04-27T00:56:26.506Z,13.90
2019-04-27T00:59:13.787Z,14.17
2019-04-27T01:01:50.700Z,14.63
2019-04-27T01:04:25.299Z,14.10
2019-04-27T01:06:57.040Z,14.83
2019-04-27T01:09:27.115Z,13.53
2019-04-27T01:11:56.921Z,13.40
2019-04-27T01:14:26.807Z,13.13
2019-04-27T01:16:56.405Z,13.30
2019-04-27T01:19:26.066Z,12.83
2019-04-27T01:21:55.847Z,12.43
2019-04-27T01:24:25.964Z,11.63
2019-04-27T01:27:13.048Z,12.80
2019-04-27T01:29:42.923Z,12.93
2019-04-27T01:32:14.388Z,12.30
2019-04-27T01:34:44.190Z,13.90
2019-04-27T01:37:13.651Z,12.83
2019-04-27T01:39:43.189Z,13.30
2019-04-27T01:42:13.041Z,12.67
2019-04-27T01:44:42.856Z,13.43
2019-04-27T01:47:12.436Z,13.43
2019-04-27T01:49:41.930Z,13.23
2019-04-27T01:52:12.019Z,12.90
2019-04-27T01:54:41.668Z,12.93
2019-04-27T01:57:11.623Z,12.50
2019-04-27T01:59:41.313Z,15.10
2019-04-27T02:02:26.136Z,15.50
2019-04-27T02:05:13.220Z,14.80
2019-04-27T02:07:43.973Z,13.13
2019-04-27T02:10:14.198Z,12.60
2019-04-27T02:12:44.286Z,11.60
2019-04-27T02:15:14.162Z,12.17
2019-04-27T02:17:43.787Z,13.00
2019-04-27T02:20:13.669Z,12.03
2019-04-27T02:22:43.686Z,12.43
2019-04-27T02:25:13.559Z,12.20
2019-04-27T02:27:49.091Z,12.43
2019-04-27T02:30:42.089Z,12.30
2019-04-27T02:33:34.272Z,13.40
2019-04-27T02:36:03.869Z,13.33
2019-04-27T02:38:33.457Z,14.30
2019-04-27T02:41:04.759Z,12.77
2019-04-27T02:43:42.974Z,13.10
2019-04-27T02:46:12.649Z,12.27
2019-04-27T02:48:55.993Z,13.33
2019-04-27T02:51:16.416Z,13.07
2019-04-27T02:54:00.140Z,12.17
2019-04-27T02:56:30.774Z,12.27
2019-04-27T02:59:00.570Z,10.87
2019-04-27T03:01:32.962Z,10.70
2019-04-27T03:04:02.712Z,10.70
2019-04-27T03:06:32.333Z,10.93
2019-04-27T03:09:02.034Z,11.13
2019-04-27T03:11:32.166Z,11.20
2019-04-27T03:14:32.573Z,10.47
2019-04-27T03:17:16.580Z,10.93
2019-04-27T03:19:54.117Z,10.90
2019-04-27T03:22:44.915Z,10.47
2019-04-27T03:25:34.899Z,10.50
2019-04-27T03:28:15.086Z,10.93
2019-04-27T03:30:44.917Z,10.67
2019-04-27T03:33:14.443Z,11.27
2019-04-27T03:35:44.313Z,10.77
2019-04-27T03:38:14.025Z,10.60
2019-04-27T03:40:44.018Z,10.37
2019-04-27T03:43:22.987Z,10.60
2019-04-27T03:45:52.808Z,10.73
2019-04-27T03:48:22.525Z,10.80
2019-04-27T03:51:10.149Z,11.10
2019-04-27T03:53:51.048Z,11.77
2019-04-27T03:56:25.735Z,10.57
2019-04-27T03:58:59.890Z,10.10
2019-04-27T04:01:30.279Z,10.90
2019-04-27T04:04:00.144Z,10.87
2019-04-27T04:06:29.831Z,11.40
2019-04-27T04:09:00.381Z,11.07
2019-04-27T04:11:39.722Z,10.63
2019-04-27T04:14:13.571Z,10.67
2019-04-27T04:17:01.784Z,11.07
2019-04-27T04:19:31.613Z,11.60
2019-04-27T04:22:00.585Z,11.43
2019-04-27T04:24:31.803Z,11.30
2019-04-27T04:27:01.730Z,11.67
2019-04-27T04:29:31.222Z,10.83
2019-04-27T04:32:00.798Z,11.27
2019-04-27T04:34:30.720Z,11.40
2019-04-27T04:37:00.798Z,11.47
2019-04-27T04:39:30.792Z,11.40
2019-04-27T04:42:19.859Z,11.13
2019-04-27T04:45:17.072Z,10.77
2019-04-27T04:48:01.532Z,11.23
2019-04-27T04:50:31.201Z,11.43
2019-04-27T04:53:00.813Z,10.23
2019-04-27T04:55:30.882Z,11.33
2019-04-27T04:58:00.578Z,11.40
2019-04-27T05:00:30.875Z,11.77
2019-04-27T05:03:00.890Z,11.30
2019-04-27T05:05:30.636Z,10.33
2019-04-27T05:08:00.890Z,11.57
2019-04-27T05:10:31.284Z,11.00
2019-04-27T05:13:00.931Z,11.17
2019-04-27T05:15:30.823Z,10.77
2019-04-27T05:18:00.502Z,10.30
2019-04-27T05:20:45.367Z,11.03
2019-04-27T05:23:14.963Z,10.57
2019-04-27T05:25:44.494Z,11.03
2019-04-27T05:28:14.230Z,10.73
2019-04-27T05:30:43.904Z,10.63
2019-04-27T05:33:13.649Z,10.90
2019-04-27T05:35:43.405Z,11.40
2019-04-27T05:38:13.618Z,11.53
2019-04-27T05:40:43.521Z,12.20
2019-04-27T05:43:14.857Z,11.57
2019-04-27T05:46:51.306Z,11.87
2019-04-27T05:49:44.441Z,11.97
2019-04-27T05:52:29.487Z,11.87
2019-04-27T05:55:00.221Z,12.97
2019-04-27T05:57:31.347Z,11.53
2019-04-27T06:00:02.490Z,11.83
2019-04-27T06:02:32.705Z,11.93
2019-04-27T06:05:02.249Z,11.73
2019-04-27T06:07:32.167Z,10.90
2019-04-27T06:10:01.864Z,11.70
2019-04-27T06:12:31.971Z,11.53
2019-04-27T06:15:01.953Z,12.00
2019-04-27T06:17:31.880Z,11.73
2019-04-27T06:20:02.018Z,11.20
2019-04-27T06:22:31.584Z,11.67
2019-04-27T06:25:01.326Z,10.97
2019-04-27T06:27:31.164Z,11.53
2019-04-27T06:30:04.716Z,11.30
2019-04-27T06:32:32.678Z,11.23
2019-04-27T06:35:02.234Z,11.13
2019-04-27T06:37:31.857Z,11.27
2019-04-27T06:40:01.734Z,11.73
2019-04-27T06:42:31.750Z,11.27
2019-04-27T06:45:01.299Z,10.93
2019-04-27T06:47:31.075Z,11.30
2019-04-27T06:50:00.661Z,11.27
2019-04-27T06:52:30.733Z,10.60
2019-04-27T06:55:00.691Z,10.63
2019-04-27T06:57:30.915Z,10.70
2019-04-27T07:00:00.552Z,11.20
2019-04-27T07:02:30.573Z,10.87
2019-04-27T07:05:00.713Z,10.73
2019-04-27T07:07:30.756Z,10.53
2019-04-27T07:10:00.552Z,10.73
2019-04-27T07:12:30.462Z,11.17
2019-04-27T07:15:00.740Z,10.63
2019-04-27T07:17:31.318Z,11.40
2019-04-27T07:20:01.249Z,11.30
2019-04-27T07:22:30.843Z,11.43
2019-04-27T07:25:00.568Z,11.07
2019-04-27T07:27:30.562Z,10.90
2019-04-27T07:30:01.717Z,11.67
2019-04-27T07:32:31.829Z,11.40
2019-04-27T07:35:01.438Z,11.00
2019-04-27T07:37:31.201Z,11.87
2019-04-27T07:40:00.905Z,11.53
2019-04-27T07:42:32.255Z,11.47
2019-04-27T07:45:11.379Z,11.90
2019-04-27T07:47:44.576Z,12.30
2019-04-27T07:50:14.573Z,12.03
2019-04-27T07:52:44.707Z,12.23
2019-04-27T07:55:14.252Z,12.17
2019-04-27T07:57:43.873Z,12.87
2019-04-27T08:00:14.789Z,11.67
2019-04-27T08:02:44.730Z,11.43
2019-04-27T08:05:14.822Z,12.40
2019-04-27T08:07:44.430Z,13.03
2019-04-27T08:10:14.740Z,11.70
2019-04-27T08:12:47.615Z,11.30
2019-04-27T08:15:18.905Z,11.50
2019-04-27T08:17:49.219Z,11.33
2019-04-27T08:20:21.116Z,11.17
2019-04-27T08:22:50.646Z,12.00
2019-04-27T08:25:22.378Z,11.40
2019-04-27T08:28:00.286Z,10.80
2019-04-27T08:30:51.742Z,12.13
2019-04-27T08:33:21.485Z,11.87
2019-04-27T08:35:51.045Z,11.67
2019-04-27T08:38:20.812Z,10.57
2019-04-27T08:40:50.362Z,11.90
2019-04-27T08:43:20.023Z,12.17
2019-04-27T08:45:50.162Z,12.13
2019-04-27T08:48:33.342Z,13.67
2019-04-27T08:50:51.367Z,15.73
2019-04-27T08:53:21.072Z,16.93
2019-04-27T08:55:52.755Z,18.30
2019-04-27T08:58:22.363Z,17.43
2019-04-27T09:00:52.228Z,18.83
2019-04-27T09:03:22.141Z,19.37
2019-04-27T09:05:52.169Z,19.40
2019-04-27T09:08:44.053Z,19.37
2019-04-27T09:11:24.428Z,20.87
2019-04-27T09:14:09.985Z,21.90
2019-04-27T09:16:59.556Z,23.60
2019-04-27T09:19:29.133Z,23.17
2019-04-27T09:22:13.443Z,23.60
2019-04-27T09:24:36.655Z,24.87
2019-04-27T09:27:09.585Z,24.70
2019-04-27T09:29:39.711Z,26.40
2019-04-27T09:32:09.533Z,25.73
2019-04-27T09:34:39.407Z,27.47
2019-04-27T09:37:09.197Z,25.50
2019-04-27T09:39:39.318Z,25.97
2019-04-27T09:42:09.334Z,26.27
2019-04-27T09:44:39.193Z,26.40
2019-04-27T09:47:09.598Z,25.53
2019-04-27T09:49:39.163Z,25.37
2019-04-27T09:52:08.880Z,26.70
2019-04-27T09:54:38.689Z,25.87
2019-04-27T09:57:08.657Z,25.37
2019-04-27T09:59:39.766Z,23.63
2019-04-27T10:02:10.122Z,24.37
2019-04-27T10:04:39.706Z,25.13
2019-04-27T10:07:10.673Z,23.70
2019-04-27T10:09:40.438Z,24.30
2019-04-27T10:12:10.273Z,23.50
2019-04-27T10:14:40.246Z,25.00
2019-04-27T10:17:09.987Z,24.80
2019-04-27T10:19:39.734Z,23.40
2019-04-27T10:22:09.618Z,22.47
2019-04-27T10:24:39.363Z,21.80
2019-04-27T10:27:09.606Z,21.03
2019-04-27T10:29:39.328Z,19.10
2019-04-27T10:32:10.003Z,17.93
2019-04-27T10:34:41.647Z,18.90
2019-04-27T10:37:11.553Z,17.47
2019-04-27T10:39:41.102Z,18.23
2019-04-27T10:42:11.060Z,18.23
2019-04-27T10:44:40.751Z,18.13
2019-04-27T10:47:11.093Z,17.33
2019-04-27T10:49:40.813Z,19.67
2019-04-27T10:52:11.831Z,19.50
2019-04-27T10:54:41.440Z,19.43
2019-04-27T10:57:11.336Z,18.40
2019-04-27T10:59:40.950Z,18.23
2019-04-27T11:02:11.065Z,17.73
2019-04-27T11:04:56.626Z,15.30
2019-04-27T11:07:30.317Z,13.17
2019-04-27T11:10:03.040Z,13.17
2019-04-27T11:12:33.295Z,11.93
2019-04-27T11:15:03.558Z,12.40
2019-04-27T11:17:37.053Z,12.23
2019-04-27T11:20:07.478Z,9.60
2019-04-27T11:22:37.313Z,9.80
2019-04-27T11:25:08.338Z,8.60
2019-04-27T11:27:38.977Z,8.17
2019-04-27T11:30:09.460Z,7.90
2019-04-27T11:32:43.721Z,5.80
2019-04-27T11:35:39.343Z,6.57
2019-04-27T11:38:08.458Z,6.00
2019-04-27T11:40:38.441Z,6.07
2019-04-27T11:43:10.345Z,6.50
2019-04-27T11:45:40.095Z,6.37
2019-04-27T11:48:10.136Z,7.50
2019-04-27T11:50:39.989Z,7.70
2019-04-27T11:53:19.815Z,6.77
2019-04-27T11:55:41.486Z,6.37
2019-04-27T11:58:11.548Z,5.53
2019-04-27T12:00:41.377Z,6.30
2019-04-27T12:03:11.916Z,6.10
2019-04-27T12:05:41.639Z,6.30
2019-04-27T12:08:11.590Z,6.03
2019-04-27T12:10:41.578Z,5.63
2019-04-27T12:13:11.463Z,6.47
2019-04-27T12:15:41.296Z,6.60
2019-04-27T12:18:11.373Z,6.67
2019-04-27T12:20:41.265Z,7.10
2019-04-27T12:23:11.005Z,6.77
2019-04-27T12:25:41.361Z,6.90
2019-04-27T12:28:20.553Z,7.60
2019-04-27T12:31:00.350Z,7.60
2019-04-27T12:33:31.530Z,8.73
2019-04-27T12:36:01.170Z,8.70
2019-04-27T12:38:30.800Z,8.77
2019-04-27T12:41:00.595Z,8.70
2019-04-27T12:43:30.350Z,7.47
2019-04-27T12:45:59.920Z,8.17
2019-04-27T12:48:30.869Z,6.30
2019-04-27T12:51:00.801Z,6.53
2019-04-27T12:53:48.616Z,6.57
2019-04-27T12:56:29.956Z,6.00
2019-04-27T12:59:05.388Z,4.67
2019-04-27T13:01:36.104Z,3.00
2019-04-27T13:04:06.210Z,3.13
2019-04-27T13:06:35.903Z,3.43
2019-04-27T13:09:07.735Z,2.80
2019-04-27T13:11:37.359Z,2.10
2019-04-27T13:14:07.311Z,2.50
2019-04-27T13:16:37.798Z,3.00
2019-04-27T13:19:08.929Z,2.17
2019-04-27T13:21:39.529Z,1.80
2019-04-27T13:24:09.770Z,1.87
2019-04-27T13:26:39.657Z,2.00
2019-04-27T13:29:09.322Z,2.67
2019-04-27T13:31:39.332Z,2.10
2019-04-27T13:34:09.379Z,2.20
2019-04-27T13:36:39.705Z,36.40
2019-04-27T13:39:09.683Z,2.70
2019-04-27T13:41:39.396Z,2.40
2019-04-27T13:44:09.001Z,2.30
2019-04-27T13:46:56.347Z,2.30
2019-04-27T13:49:51.136Z,2.57
2019-04-27T13:52:23.284Z,2.50
2019-04-27T13:54:52.959Z,2.00
2019-04-27T13:57:22.804Z,2.50
2019-04-27T13:59:52.563Z,2.10
2019-04-27T14:02:24.198Z,2.50
2019-04-27T14:04:54.510Z,1.83
2019-04-27T14:07:26.618Z,2.20
2019-04-27T14:09:56.327Z,2.07
2019-04-27T14:12:25.880Z,2.00
2019-04-27T14:14:55.637Z,2.50
2019-04-27T14:17:25.281Z,2.40
2019-04-27T14:19:55.608Z,1.70
2019-04-27T14:22:25.455Z,2.20
2019-04-27T14:24:55.110Z,2.20
2019-04-27T14:27:31.064Z,1.90
2019-04-27T14:30:00.829Z,2.30
2019-04-27T14:32:30.444Z,3.83
2019-04-27T14:35:00.298Z,5.70
2019-04-27T14:37:30.383Z,4.67
2019-04-27T14:40:00.220Z,14.27
2019-04-27T14:42:29.787Z,3.57
2019-04-27T14:44:59.491Z,2.70
2019-04-27T14:47:29.572Z,2.97
2019-04-27T14:49:59.463Z,2.30
2019-04-27T14:52:29.306Z,2.20
2019-04-27T14:54:59.209Z,1.87
2019-04-27T14:57:29.236Z,2.00
2019-04-27T15:00:00.202Z,2.00
2019-04-27T15:02:30.780Z,1.77
2019-04-27T15:05:00.466Z,1.87
2019-04-27T15:07:30.529Z,1.63
2019-04-27T15:10:00.400Z,1.40
2019-04-27T15:12:32.354Z,1.10
2019-04-27T15:15:01.813Z,1.23
2019-04-27T15:17:31.630Z,1.73
2019-04-27T15:20:06.601Z,1.40
2019-04-27T15:22:36.263Z,1.60
2019-04-27T15:25:12.331Z,2.03
2019-04-27T15:27:43.097Z,2.70
2019-04-27T15:30:18.872Z,2.73
2019-04-27T15:33:22.889Z,2.40
2019-04-27T15:36:00.094Z,2.07
2019-04-27T15:38:33.571Z,2.80
2019-04-27T15:41:13.803Z,2.63
2019-04-27T15:43:44.163Z,1.50
2019-04-27T15:46:14.200Z,1.70
2019-04-27T15:48:48.368Z,1.50
2019-04-27T15:51:20.991Z,1.50
2019-04-27T15:53:52.857Z,1.73
2019-04-27T15:56:22.120Z,1.67
2019-04-27T15:58:51.785Z,1.80
2019-04-27T16:01:22.635Z,2.13
2019-04-27T16:03:52.488Z,1.80
2019-04-27T16:06:22.339Z,2.20
2019-04-27T16:08:52.691Z,1.90
2019-04-27T16:11:22.505Z,2.30
2019-04-27T16:13:52.917Z,3.90
2019-04-27T16:16:24.602Z,1.67
2019-04-27T16:18:57.871Z,2.00
2019-04-27T16:21:31.554Z,2.40
2019-04-27T16:24:03.799Z,2.40
2019-04-27T16:26:36.127Z,1.80
2019-04-27T16:29:06.101Z,2.70
2019-04-27T16:31:36.704Z,1.90
2019-04-27T16:34:08.312Z,1.80
2019-04-27T16:36:43.588Z,1.53
2019-04-27T16:39:11.102Z,2.60
2019-04-27T16:41:44.506Z,2.33
2019-04-27T16:44:15.522Z,2.33
2019-04-27T16:46:45.755Z,2.00
2019-04-27T16:49:15.663Z,1.87
2019-04-27T16:51:49.246Z,1.90
2019-04-27T16:54:21.357Z,2.87
2019-04-27T16:56:58.283Z,2.10
2019-04-27T16:59:42.641Z,2.17
2019-04-27T17:01:55.310Z,2.53
2019-04-27T17:04:25.026Z,2.70
2019-04-27T17:06:55.013Z,2.13
2019-04-27T17:09:24.894Z,2.10
2019-04-27T17:11:54.895Z,2.00
2019-04-27T17:14:35.232Z,2.20
2019-04-27T17:17:20.905Z,1.47
2019-04-27T17:19:53.642Z,1.30
2019-04-27T17:22:24.067Z,1.20
2019-04-27T17:24:53.858Z,1.60
2019-04-27T17:27:31.948Z,1.50
2019-04-27T17:30:02.225Z,1.40
2019-04-27T17:32:41.746Z,1.70
2019-04-27T17:35:14.769Z,1.70
2019-04-27T17:37:42.956Z,1.10
2019-04-27T17:40:15.513Z,1.60
2019-04-27T17:42:45.330Z,1.50
2019-04-27T17:45:15.595Z,1.63
2019-04-27T17:47:45.546Z,1.40
2019-04-27T17:50:19.983Z,1.73
2019-04-27T17:52:55.015Z,1.70
2019-04-27T17:55:24.302Z,1.37
2019-04-27T17:58:00.545Z,4.90
2019-04-27T18:00:32.975Z,2.27
2019-04-27T18:03:00.655Z,1.43
2019-04-27T18:05:30.633Z,1.30
2019-04-27T18:08:00.931Z,1.50
2019-04-27T18:10:32.020Z,1.23
2019-04-27T18:13:02.031Z,1.70
2019-04-27T18:15:32.742Z,1.87
2019-04-27T18:18:11.616Z,1.80
2019-04-27T18:20:44.032Z,1.20
2019-04-27T18:23:18.556Z,2.07
2019-04-27T18:25:54.076Z,2.37
2019-04-27T18:28:28.287Z,2.40
2019-04-27T18:31:16.456Z,1.73
2019-04-27T18:33:48.121Z,1.23
2019-04-27T18:36:19.414Z,1.30
2019-04-27T18:38:50.166Z,1.47
2019-04-27T18:41:22.441Z,1.40
2019-04-27T18:43:55.203Z,1.60
2019-04-27T18:46:28.193Z,1.43
2019-04-27T18:49:18.169Z,2.10
2019-04-27T18:52:06.535Z,1.80
2019-04-27T18:54:41.871Z,1.33
2019-04-27T18:57:10.796Z,1.10
2019-04-27T18:59:43.157Z,1.20
2019-04-27T19:02:12.892Z,1.10
2019-04-27T19:04:42.828Z,0.97
2019-04-27T19:07:12.951Z,1.03
2019-04-27T19:09:43.393Z,1.30
2019-04-27T19:12:14.237Z,1.10
2019-04-27T19:14:47.768Z,1.10
2019-04-27T19:17:19.841Z,1.27
2019-04-27T19:19:51.138Z,1.90
2019-04-27T19:22:21.456Z,2.23
2019-04-27T19:24:51.830Z,3.23
2019-04-27T19:27:44.128Z,3.10
2019-04-27T19:30:23.850Z,2.30
2019-04-27T19:32:55.121Z,2.30
2019-04-27T19:35:25.956Z,2.10
2019-04-27T19:37:56.556Z,1.70
2019-04-27T19:40:26.683Z,2.10
2019-04-27T19:42:58.727Z,1.33
2019-04-27T19:45:31.867Z,1.60
2019-04-27T19:48:02.574Z,1.43
2019-04-27T19:50:32.838Z,1.27
2019-04-27T19:53:03.042Z,1.20
2019-04-27T19:55:38.954Z,1.30
2019-04-27T19:58:09.365Z,1.40
2019-04-27T20:01:11.131Z,2.43
2019-04-27T20:03:38.875Z,1.30
2019-04-27T20:06:10.432Z,1.13
2019-04-27T20:08:42.580Z,1.83
2019-04-27T20:11:12.399Z,1.60
2019-04-27T20:13:42.386Z,1.20
2019-04-27T20:16:12.382Z,1.90
2019-04-27T20:18:43.329Z,1.57
2019-04-27T20:21:13.316Z,1.60
2019-04-27T20:23:43.156Z,1.40
2019-04-27T20:26:12.959Z,1.10
2019-04-27T20:28:43.479Z,1.17
2019-04-27T20:31:13.491Z,1.33
2019-04-27T20:33:43.433Z,1.20
2019-04-27T20:36:13.152Z,1.40
2019-04-27T20:38:43.800Z,1.10
2019-04-27T20:41:13.902Z,1.67
2019-04-27T20:43:44.228Z,1.83
2019-04-27T20:46:14.432Z,3.00
2019-04-27T20:48:44.204Z,3.33
2019-04-27T20:51:14.399Z,3.10
2019-04-27T20:53:51.764Z,2.73
2019-04-27T20:56:21.953Z,2.00
2019-04-27T20:58:51.870Z,2.30
2019-04-27T21:01:21.774Z,2.20
2019-04-27T21:03:55.469Z,2.70
2019-04-27T21:06:42.625Z,3.13
2019-04-27T21:09:16.843Z,3.10
2019-04-27T21:11:49.374Z,4.30
2019-04-27T21:14:21.720Z,3.97
2019-04-27T21:16:56.806Z,3.50
2019-04-27T21:19:26.406Z,3.00
2019-04-27T21:21:58.683Z,2.57
2019-04-27T21:24:28.459Z,2.70
2019-04-27T21:26:59.751Z,2.90
2019-04-27T21:29:31.175Z,2.07
2019-04-27T21:32:01.226Z,1.97
2019-04-27T21:34:31.214Z,2.57
2019-04-27T21:37:01.142Z,2.30
2019-04-27T21:39:32.365Z,1.80
2019-04-27T21:42:03.410Z,3.07
2019-04-27T21:44:33.893Z,12.43
2019-04-27T21:47:04.512Z,2.83
2019-04-27T21:49:37.257Z,8.60
2019-04-27T21:52:14.626Z,8.27
2019-04-27T21:54:44.972Z,2.73
2019-04-27T21:57:15.133Z,2.10
2019-04-27T21:59:44.895Z,1.50
2019-04-27T22:02:14.621Z,1.83
2019-04-27T22:04:44.612Z,1.40
2019-04-27T22:07:14.451Z,1.67
2019-04-27T22:09:44.425Z,1.87
2019-04-27T22:12:14.941Z,1.70
2019-04-27T22:14:45.711Z,1.80
2019-04-27T22:17:16.701Z,2.40
2019-04-27T22:19:46.560Z,1.90
2019-04-27T22:22:24.128Z,1.50
2019-04-27T22:25:04.900Z,2.10
2019-04-27T22:27:35.491Z,2.13
2019-04-27T22:30:07.576Z,1.70
2019-04-27T22:32:38.110Z,2.00
2019-04-27T22:35:08.374Z,2.10
2019-04-27T22:37:41.351Z,2.57
2019-04-27T22:40:38.484Z,3.20
2019-04-27T22:43:41.198Z,3.60
2019-04-27T22:46:13.839Z,4.07
2019-04-27T22:48:46.541Z,4.30
2019-04-27T22:51:17.559Z,4.53
2019-04-27T22:53:48.002Z,5.80
2019-04-27T22:56:22.285Z,6.23
2019-04-27T22:59:03.631Z,6.40
2019-04-27T23:01:53.828Z,5.63
2019-04-27T23:04:32.429Z,6.83
2019-04-27T23:07:03.190Z,7.27
2019-04-27T23:09:33.774Z,6.53
2019-04-27T23:12:04.552Z,7.43
2019-04-27T23:14:41.373Z,8.23
2019-04-27T23:17:36.073Z,9.13
2019-04-27T23:20:06.438Z,8.27
2019-04-27T23:22:36.884Z,8.67
2019-04-27T23:25:07.039Z,8.87
2019-04-27T23:27:36.718Z,9.30
2019-04-27T23:30:07.027Z,8.93
2019-04-27T23:32:51.321Z,8.87
2019-04-27T23:35:20.786Z,8.37
2019-04-27T23:37:50.807Z,7.70
2019-04-27T23:40:22.054Z,7.97
2019-04-27T23:42:51.920Z,8.40
2019-04-27T23:45:26.751Z,8.43
2019-04-27T23:47:56.633Z,7.50
2019-04-27T23:50:28.378Z,9.27
2019-04-27T23:53:05.807Z,9.70
2019-04-27T23:55:36.116Z,10.10
2019-04-27T23:58:10.890Z,11.53
